sensor_id;sensor_type;location;lat;lon;timestamp;P1;durP1;ratioP1;P2;durP2;ratioP2
55597;SDS011;41463;53.186;5.552;2023-02-21T00:05:26;22.23;;;6.80;;
55597;SDS011;41463;53.186;5.552;2023-02-21T00:08:11;26.10;;;7.40;;
55597;SDS011;41463;53.186;5.552;2023-02-21T00:10:55;23.48;;;6.82;;
55597;SDS011;41463;53.186;5.552;2023-02-21T00:13:39;20.35;;;7.28;;
55597;SDS011;41463;53.186;5.552;2023-02-21T00:16:24;18.95;;;7.13;;
55597;SDS011;41463;53.186;5.552;2023-02-21T00:21:55;25.08;;;7.40;;
55597;SDS011;41463;53.186;5.552;2023-02-21T00:27:24;20.75;;;7.38;;
55597;SDS011;41463;53.186;5.552;2023-02-21T00:30:13;20.88;;;7.47;;
55597;SDS011;41463;53.186;5.552;2023-02-21T00:32:57;23.10;;;7.38;;
55597;SDS011;41463;53.186;5.552;2023-02-21T00:35:42;32.63;;;9.32;;
55597;SDS011;41463;53.186;5.552;2023-02-21T00:41:10;23.80;;;8.57;;
55597;SDS011;41463;53.186;5.552;2023-02-21T00:43:57;25.85;;;9.73;;
55597;SDS011;41463;53.186;5.552;2023-02-21T00:46:44;25.75;;;8.60;;
55597;SDS011;41463;53.186;5.552;2023-02-21T00:49:28;24.08;;;9.40;;
55597;SDS011;41463;53.186;5.552;2023-02-21T00:52:13;26.05;;;9.40;;
55597;SDS011;41463;53.186;5.552;2023-02-21T00:54:57;23.85;;;9.45;;
55597;SDS011;41463;53.186;5.552;2023-02-21T00:57:42;17.77;;;8.88;;
55597;SDS011;41463;53.186;5.552;2023-02-21T01:03:16;24.55;;;8.18;;
55597;SDS011;41463;53.186;5.552;2023-02-21T01:08:45;30.55;;;10.55;;
55597;SDS011;41463;53.186;5.552;2023-02-21T01:11:32;25.35;;;9.80;;
55597;SDS011;41463;53.186;5.552;2023-02-21T01:14:19;27.25;;;10.05;;
55597;SDS011;41463;53.186;5.552;2023-02-21T01:17:03;19.17;;;9.90;;
55597;SDS011;41463;53.186;5.552;2023-02-21T01:22:32;21.05;;;9.90;;
55597;SDS011;41463;53.186;5.552;2023-02-21T01:25:25;18.33;;;9.07;;
55597;SDS011;41463;53.186;5.552;2023-02-21T01:28:12;21.85;;;10.20;;
55597;SDS011;41463;53.186;5.552;2023-02-21T01:33:40;25.77;;;9.65;;
55597;SDS011;41463;53.186;5.552;2023-02-21T01:36:25;24.83;;;9.88;;
55597;SDS011;41463;53.186;5.552;2023-02-21T01:39:10;23.63;;;10.25;;
55597;SDS011;41463;53.186;5.552;2023-02-21T01:41:55;23.48;;;10.25;;
55597;SDS011;41463;53.186;5.552;2023-02-21T01:44:41;28.30;;;10.18;;
55597;SDS011;41463;53.186;5.552;2023-02-21T01:47:32;23.58;;;10.75;;
55597;SDS011;41463;53.186;5.552;2023-02-21T01:50:25;21.85;;;10.00;;
55597;SDS011;41463;53.186;5.552;2023-02-21T01:53:19;23.25;;;9.82;;
55597;SDS011;41463;53.186;5.552;2023-02-21T01:56:06;23.55;;;9.70;;
55597;SDS011;41463;53.186;5.552;2023-02-21T01:58:52;19.58;;;9.98;;
55597;SDS011;41463;53.186;5.552;2023-02-21T02:01:53;21.67;;;10.38;;
55597;SDS011;41463;53.186;5.552;2023-02-21T02:04:43;25.27;;;10.82;;
55597;SDS011;41463;53.186;5.552;2023-02-21T02:07:30;26.38;;;11.45;;
55597;SDS011;41463;53.186;5.552;2023-02-21T02:10:15;32.50;;;12.98;;
55597;SDS011;41463;53.186;5.552;2023-02-21T02:13:08;23.95;;;10.82;;
55597;SDS011;41463;53.186;5.552;2023-02-21T02:15:49;20.42;;;8.75;;
55597;SDS011;41463;53.186;5.552;2023-02-21T02:21:13;15.27;;;9.45;;
55597;SDS011;41463;53.186;5.552;2023-02-21T02:43:30;25.08;;;11.48;;
55597;SDS011;41463;53.186;5.552;2023-02-21T02:49:02;19.40;;;10.90;;
55597;SDS011;41463;53.186;5.552;2023-02-21T02:51:33;19.70;;;9.75;;
55597;SDS011;41463;53.186;5.552;2023-02-21T02:54:05;21.25;;;11.43;;
55597;SDS011;41463;53.186;5.552;2023-02-21T02:56:34;22.08;;;11.30;;
55597;SDS011;41463;53.186;5.552;2023-02-21T02:59:04;15.65;;;9.98;;
55597;SDS011;41463;53.186;5.552;2023-02-21T03:15:54;19.65;;;11.85;;
55597;SDS011;41463;53.186;5.552;2023-02-21T03:18:39;19.45;;;11.60;;
55597;SDS011;41463;53.186;5.552;2023-02-21T03:21:15;19.13;;;10.10;;
55597;SDS011;41463;53.186;5.552;2023-02-21T03:23:47;20.83;;;13.65;;
55597;SDS011;41463;53.186;5.552;2023-02-21T03:26:16;22.88;;;13.00;;
55597;SDS011;41463;53.186;5.552;2023-02-21T03:28:43;23.88;;;14.52;;
55597;SDS011;41463;53.186;5.552;2023-02-21T03:31:13;20.20;;;12.90;;
55597;SDS011;41463;53.186;5.552;2023-02-21T03:33:42;25.13;;;14.07;;
55597;SDS011;41463;53.186;5.552;2023-02-21T03:36:08;23.40;;;12.77;;
55597;SDS011;41463;53.186;5.552;2023-02-21T03:38:38;18.58;;;11.40;;
55597;SDS011;41463;53.186;5.552;2023-02-21T03:41:05;23.85;;;11.05;;
55597;SDS011;41463;53.186;5.552;2023-02-21T03:43:32;21.38;;;11.75;;
55597;SDS011;41463;53.186;5.552;2023-02-21T03:45:58;18.83;;;11.98;;
55597;SDS011;41463;53.186;5.552;2023-02-21T03:48:25;19.42;;;11.30;;
55597;SDS011;41463;53.186;5.552;2023-02-21T03:50:54;21.00;;;11.77;;
55597;SDS011;41463;53.186;5.552;2023-02-21T03:53:19;19.38;;;10.52;;
55597;SDS011;41463;53.186;5.552;2023-02-21T03:55:45;20.92;;;12.50;;
55597;SDS011;41463;53.186;5.552;2023-02-21T03:58:14;28.30;;;13.23;;
55597;SDS011;41463;53.186;5.552;2023-02-21T04:00:39;19.25;;;12.40;;
55597;SDS011;41463;53.186;5.552;2023-02-21T04:03:05;20.63;;;12.32;;
55597;SDS011;41463;53.186;5.552;2023-02-21T04:05:31;21.08;;;11.65;;
55597;SDS011;41463;53.186;5.552;2023-02-21T04:08:00;21.70;;;13.52;;
55597;SDS011;41463;53.186;5.552;2023-02-21T04:10:26;21.27;;;13.48;;
55597;SDS011;41463;53.186;5.552;2023-02-21T04:12:52;27.30;;;14.10;;
55597;SDS011;41463;53.186;5.552;2023-02-21T04:15:17;25.05;;;13.57;;
55597;SDS011;41463;53.186;5.552;2023-02-21T04:17:43;22.10;;;12.50;;
55597;SDS011;41463;53.186;5.552;2023-02-21T04:20:09;17.48;;;11.38;;
55597;SDS011;41463;53.186;5.552;2023-02-21T04:22:38;22.85;;;12.68;;
55597;SDS011;41463;53.186;5.552;2023-02-21T04:25:05;23.40;;;12.65;;
55597;SDS011;41463;53.186;5.552;2023-02-21T04:27:30;22.83;;;13.70;;
55597;SDS011;41463;53.186;5.552;2023-02-21T04:29:59;25.92;;;13.23;;
55597;SDS011;41463;53.186;5.552;2023-02-21T04:32:25;21.50;;;12.88;;
55597;SDS011;41463;53.186;5.552;2023-02-21T04:34:53;23.33;;;11.80;;
55597;SDS011;41463;53.186;5.552;2023-02-21T04:37:19;25.27;;;13.60;;
55597;SDS011;41463;53.186;5.552;2023-02-21T04:39:45;23.08;;;13.93;;
55597;SDS011;41463;53.186;5.552;2023-02-21T04:42:11;20.90;;;13.02;;
55597;SDS011;41463;53.186;5.552;2023-02-21T04:44:37;22.65;;;13.70;;
55597;SDS011;41463;53.186;5.552;2023-02-21T04:47:03;27.63;;;13.90;;
55597;SDS011;41463;53.186;5.552;2023-02-21T04:49:29;25.17;;;14.23;;
55597;SDS011;41463;53.186;5.552;2023-02-21T04:51:54;31.23;;;14.55;;
55597;SDS011;41463;53.186;5.552;2023-02-21T04:54:20;26.60;;;15.05;;
55597;SDS011;41463;53.186;5.552;2023-02-21T04:56:46;24.88;;;14.07;;
55597;SDS011;41463;53.186;5.552;2023-02-21T04:59:12;23.52;;;14.50;;
55597;SDS011;41463;53.186;5.552;2023-02-21T05:01:38;28.40;;;15.30;;
55597;SDS011;41463;53.186;5.552;2023-02-21T05:04:03;30.88;;;15.90;;
55597;SDS011;41463;53.186;5.552;2023-02-21T05:06:29;26.45;;;15.40;;
55597;SDS011;41463;53.186;5.552;2023-02-21T05:08:56;28.38;;;16.63;;
55597;SDS011;41463;53.186;5.552;2023-02-21T05:11:23;28.45;;;16.40;;
55597;SDS011;41463;53.186;5.552;2023-02-21T05:13:49;29.33;;;15.80;;
55597;SDS011;41463;53.186;5.552;2023-02-21T05:16:15;29.80;;;15.60;;
55597;SDS011;41463;53.186;5.552;2023-02-21T05:18:42;25.85;;;13.10;;
55597;SDS011;41463;53.186;5.552;2023-02-21T05:21:10;31.20;;;15.48;;
55597;SDS011;41463;53.186;5.552;2023-02-21T05:23:37;27.20;;;13.98;;
55597;SDS011;41463;53.186;5.552;2023-02-21T05:26:09;24.30;;;14.25;;
55597;SDS011;41463;53.186;5.552;2023-02-21T05:28:40;26.98;;;14.45;;
55597;SDS011;41463;53.186;5.552;2023-02-21T05:31:07;25.83;;;15.52;;
55597;SDS011;41463;53.186;5.552;2023-02-21T05:33:32;26.95;;;14.48;;
55597;SDS011;41463;53.186;5.552;2023-02-21T05:35:58;24.33;;;14.43;;
55597;SDS011;41463;53.186;5.552;2023-02-21T05:38:24;27.52;;;14.63;;
55597;SDS011;41463;53.186;5.552;2023-02-21T05:40:53;26.52;;;15.40;;
55597;SDS011;41463;53.186;5.552;2023-02-21T05:43:19;25.58;;;15.05;;
55597;SDS011;41463;53.186;5.552;2023-02-21T05:45:48;28.83;;;15.52;;
55597;SDS011;41463;53.186;5.552;2023-02-21T05:48:13;28.15;;;16.00;;
55597;SDS011;41463;53.186;5.552;2023-02-21T05:50:39;28.17;;;16.15;;
55597;SDS011;41463;53.186;5.552;2023-02-21T05:53:05;24.58;;;15.88;;
55597;SDS011;41463;53.186;5.552;2023-02-21T05:55:33;30.08;;;14.95;;
55597;SDS011;41463;53.186;5.552;2023-02-21T05:57:59;28.75;;;15.45;;
55597;SDS011;41463;53.186;5.552;2023-02-21T06:00:26;26.45;;;15.80;;
55597;SDS011;41463;53.186;5.552;2023-02-21T06:02:53;27.08;;;16.05;;
55597;SDS011;41463;53.186;5.552;2023-02-21T06:05:20;23.83;;;13.82;;
55597;SDS011;41463;53.186;5.552;2023-02-21T06:07:49;30.55;;;14.65;;
55597;SDS011;41463;53.186;5.552;2023-02-21T06:10:17;26.73;;;15.80;;
55597;SDS011;41463;53.186;5.552;2023-02-21T06:15:27;25.63;;;15.23;;
55597;SDS011;41463;53.186;5.552;2023-02-21T06:17:52;27.00;;;15.55;;
55597;SDS011;41463;53.186;5.552;2023-02-21T06:20:18;25.23;;;15.60;;
55597;SDS011;41463;53.186;5.552;2023-02-21T06:22:44;29.45;;;15.05;;
55597;SDS011;41463;53.186;5.552;2023-02-21T06:25:11;31.52;;;15.70;;
55597;SDS011;41463;53.186;5.552;2023-02-21T06:27:37;28.35;;;16.02;;
55597;SDS011;41463;53.186;5.552;2023-02-21T06:30:03;26.60;;;16.73;;
55597;SDS011;41463;53.186;5.552;2023-02-21T06:32:30;27.77;;;16.23;;
55597;SDS011;41463;53.186;5.552;2023-02-21T06:34:55;30.02;;;15.77;;
55597;SDS011;41463;53.186;5.552;2023-02-21T06:37:21;26.52;;;15.20;;
55597;SDS011;41463;53.186;5.552;2023-02-21T06:39:47;29.58;;;17.27;;
55597;SDS011;41463;53.186;5.552;2023-02-21T06:42:15;26.50;;;16.48;;
55597;SDS011;41463;53.186;5.552;2023-02-21T06:44:42;25.92;;;15.77;;
55597;SDS011;41463;53.186;5.552;2023-02-21T06:47:09;27.60;;;16.85;;
55597;SDS011;41463;53.186;5.552;2023-02-21T06:49:37;28.15;;;16.30;;
55597;SDS011;41463;53.186;5.552;2023-02-21T06:52:03;27.80;;;15.20;;
55597;SDS011;41463;53.186;5.552;2023-02-21T06:54:32;27.27;;;16.70;;
55597;SDS011;41463;53.186;5.552;2023-02-21T06:57:00;27.55;;;16.73;;
55597;SDS011;41463;53.186;5.552;2023-02-21T06:59:27;27.95;;;16.90;;
55597;SDS011;41463;53.186;5.552;2023-02-21T07:01:53;30.88;;;18.20;;
55597;SDS011;41463;53.186;5.552;2023-02-21T07:04:22;32.05;;;17.30;;
55597;SDS011;41463;53.186;5.552;2023-02-21T07:06:49;28.13;;;16.15;;
55597;SDS011;41463;53.186;5.552;2023-02-21T07:09:15;31.42;;;17.83;;
55597;SDS011;41463;53.186;5.552;2023-02-21T07:11:41;27.75;;;16.98;;
55597;SDS011;41463;53.186;5.552;2023-02-21T07:14:06;30.00;;;18.00;;
55597;SDS011;41463;53.186;5.552;2023-02-21T07:16:35;27.77;;;17.67;;
55597;SDS011;41463;53.186;5.552;2023-02-21T07:19:01;30.42;;;17.42;;
55597;SDS011;41463;53.186;5.552;2023-02-21T07:21:27;29.58;;;16.23;;
55597;SDS011;41463;53.186;5.552;2023-02-21T07:23:53;34.63;;;17.88;;
55597;SDS011;41463;53.186;5.552;2023-02-21T07:26:18;28.30;;;17.83;;
55597;SDS011;41463;53.186;5.552;2023-02-21T07:28:46;25.35;;;16.08;;
55597;SDS011;41463;53.186;5.552;2023-02-21T07:31:12;29.17;;;17.83;;
55597;SDS011;41463;53.186;5.552;2023-02-21T07:33:40;30.15;;;16.08;;
55597;SDS011;41463;53.186;5.552;2023-02-21T07:36:09;28.25;;;16.60;;
55597;SDS011;41463;53.186;5.552;2023-02-21T07:38:35;29.13;;;16.02;;
55597;SDS011;41463;53.186;5.552;2023-02-21T07:41:01;31.00;;;17.00;;
55597;SDS011;41463;53.186;5.552;2023-02-21T07:43:28;24.52;;;15.82;;
55597;SDS011;41463;53.186;5.552;2023-02-21T07:45:55;25.63;;;14.23;;
55597;SDS011;41463;53.186;5.552;2023-02-21T07:48:21;24.63;;;16.08;;
55597;SDS011;41463;53.186;5.552;2023-02-21T07:50:48;29.38;;;15.65;;
55597;SDS011;41463;53.186;5.552;2023-02-21T07:53:17;28.73;;;17.38;;
55597;SDS011;41463;53.186;5.552;2023-02-21T07:55:43;26.92;;;16.65;;
55597;SDS011;41463;53.186;5.552;2023-02-21T07:58:08;24.13;;;14.75;;
55597;SDS011;41463;53.186;5.552;2023-02-21T08:00:34;26.10;;;15.63;;
55597;SDS011;41463;53.186;5.552;2023-02-21T08:03:00;29.55;;;17.02;;
55597;SDS011;41463;53.186;5.552;2023-02-21T08:05:26;26.08;;;15.32;;
55597;SDS011;41463;53.186;5.552;2023-02-21T08:07:52;24.05;;;15.70;;
55597;SDS011;41463;53.186;5.552;2023-02-21T08:10:24;33.45;;;17.67;;
55597;SDS011;41463;53.186;5.552;2023-02-21T08:12:54;25.58;;;15.95;;
55597;SDS011;41463;53.186;5.552;2023-02-21T08:15:20;24.95;;;15.68;;
55597;SDS011;41463;53.186;5.552;2023-02-21T08:17:47;25.60;;;15.18;;
55597;SDS011;41463;53.186;5.552;2023-02-21T08:20:14;25.48;;;15.68;;
55597;SDS011;41463;53.186;5.552;2023-02-21T08:22:40;25.02;;;15.93;;
55597;SDS011;41463;53.186;5.552;2023-02-21T08:25:05;26.80;;;16.73;;
55597;SDS011;41463;53.186;5.552;2023-02-21T08:27:31;24.50;;;16.52;;
55597;SDS011;41463;53.186;5.552;2023-02-21T08:29:57;24.92;;;15.38;;
55597;SDS011;41463;53.186;5.552;2023-02-21T08:32:23;22.30;;;15.63;;
55597;SDS011;41463;53.186;5.552;2023-02-21T08:34:49;24.00;;;16.20;;
55597;SDS011;41463;53.186;5.552;2023-02-21T08:37:15;22.10;;;15.88;;
55597;SDS011;41463;53.186;5.552;2023-02-21T08:39:45;23.55;;;16.63;;
55597;SDS011;41463;53.186;5.552;2023-02-21T08:42:12;23.85;;;15.80;;
55597;SDS011;41463;53.186;5.552;2023-02-21T08:44:38;25.50;;;15.60;;
55597;SDS011;41463;53.186;5.552;2023-02-21T08:47:06;26.38;;;15.73;;
55597;SDS011;41463;53.186;5.552;2023-02-21T08:49:32;25.77;;;16.00;;
55597;SDS011;41463;53.186;5.552;2023-02-21T08:51:58;24.35;;;15.23;;
55597;SDS011;41463;53.186;5.552;2023-02-21T08:54:24;23.17;;;14.73;;
55597;SDS011;41463;53.186;5.552;2023-02-21T08:56:49;25.83;;;16.67;;
55597;SDS011;41463;53.186;5.552;2023-02-21T08:59:16;24.27;;;15.13;;
55597;SDS011;41463;53.186;5.552;2023-02-21T09:01:41;22.63;;;13.57;;
55597;SDS011;41463;53.186;5.552;2023-02-21T09:04:07;25.95;;;15.98;;
55597;SDS011;41463;53.186;5.552;2023-02-21T09:06:35;22.73;;;14.25;;
55597;SDS011;41463;53.186;5.552;2023-02-21T09:09:01;23.23;;;14.30;;
55597;SDS011;41463;53.186;5.552;2023-02-21T09:11:27;25.42;;;15.60;;
55597;SDS011;41463;53.186;5.552;2023-02-21T09:13:53;20.73;;;14.48;;
55597;SDS011;41463;53.186;5.552;2023-02-21T09:16:19;19.52;;;12.15;;
55597;SDS011;41463;53.186;5.552;2023-02-21T09:18:55;22.75;;;14.18;;
55597;SDS011;41463;53.186;5.552;2023-02-21T09:21:23;21.73;;;12.73;;
55597;SDS011;41463;53.186;5.552;2023-02-21T09:23:54;24.73;;;14.48;;
55597;SDS011;41463;53.186;5.552;2023-02-21T09:26:38;22.33;;;14.73;;
55597;SDS011;41463;53.186;5.552;2023-02-21T09:29:07;25.38;;;15.15;;
55597;SDS011;41463;53.186;5.552;2023-02-21T09:32:05;24.35;;;14.13;;
55597;SDS011;41463;53.186;5.552;2023-02-21T09:34:31;18.67;;;13.38;;
55597;SDS011;41463;53.186;5.552;2023-02-21T09:36:57;23.23;;;13.45;;
55597;SDS011;41463;53.186;5.552;2023-02-21T09:39:23;26.73;;;15.32;;
55597;SDS011;41463;53.186;5.552;2023-02-21T09:41:49;23.33;;;15.00;;
55597;SDS011;41463;53.186;5.552;2023-02-21T09:44:19;22.17;;;14.10;;
55597;SDS011;41463;53.186;5.552;2023-02-21T09:49:25;19.48;;;14.35;;
55597;SDS011;41463;53.186;5.552;2023-02-21T09:51:55;20.40;;;13.70;;
55597;SDS011;41463;53.186;5.552;2023-02-21T09:54:34;20.65;;;14.90;;
55597;SDS011;41463;53.186;5.552;2023-02-21T09:57:08;17.95;;;12.60;;
55597;SDS011;41463;53.186;5.552;2023-02-21T09:59:37;19.88;;;13.23;;
55597;SDS011;41463;53.186;5.552;2023-02-21T10:09:58;17.70;;;12.07;;
55597;SDS011;41463;53.186;5.552;2023-02-21T10:12:46;17.90;;;11.68;;
55597;SDS011;41463;53.186;5.552;2023-02-21T10:17:58;16.75;;;12.25;;
55597;SDS011;41463;53.186;5.552;2023-02-21T10:20:40;17.95;;;11.95;;
55597;SDS011;41463;53.186;5.552;2023-02-21T10:25:46;16.10;;;11.48;;
55597;SDS011;41463;53.186;5.552;2023-02-21T10:28:19;18.38;;;11.98;;
55597;SDS011;41463;53.186;5.552;2023-02-21T10:30:47;18.75;;;12.00;;
55597;SDS011;41463;53.186;5.552;2023-02-21T10:33:18;19.52;;;11.73;;
55597;SDS011;41463;53.186;5.552;2023-02-21T10:35:44;15.60;;;11.30;;
55597;SDS011;41463;53.186;5.552;2023-02-21T10:38:11;15.50;;;11.00;;
55597;SDS011;41463;53.186;5.552;2023-02-21T10:41:00;14.85;;;10.60;;
55597;SDS011;41463;53.186;5.552;2023-02-21T10:43:33;14.98;;;10.63;;
55597;SDS011;41463;53.186;5.552;2023-02-21T10:46:18;18.67;;;11.18;;
55597;SDS011;41463;53.186;5.552;2023-02-21T10:48:47;18.10;;;12.18;;
55597;SDS011;41463;53.186;5.552;2023-02-21T10:51:37;15.70;;;10.80;;
55597;SDS011;41463;53.186;5.552;2023-02-21T10:54:22;17.40;;;11.23;;
55597;SDS011;41463;53.186;5.552;2023-02-21T10:56:50;18.10;;;10.82;;
55597;SDS011;41463;53.186;5.552;2023-02-21T10:59:26;18.83;;;11.35;;
55597;SDS011;41463;53.186;5.552;2023-02-21T11:01:55;19.40;;;12.05;;
55597;SDS011;41463;53.186;5.552;2023-02-21T11:04:23;17.35;;;11.85;;
55597;SDS011;41463;53.186;5.552;2023-02-21T11:12:17;16.75;;;12.15;;
55597;SDS011;41463;53.186;5.552;2023-02-21T11:19:43;16.38;;;13.07;;
55597;SDS011;41463;53.186;5.552;2023-02-21T11:22:10;17.30;;;11.68;;
55597;SDS011;41463;53.186;5.552;2023-02-21T11:27:32;20.13;;;13.23;;
55597;SDS011;41463;53.186;5.552;2023-02-21T11:30:00;16.73;;;11.50;;
55597;SDS011;41463;53.186;5.552;2023-02-21T11:32:38;16.80;;;11.93;;
55597;SDS011;41463;53.186;5.552;2023-02-21T11:35:07;17.25;;;11.82;;
55597;SDS011;41463;53.186;5.552;2023-02-21T11:40:39;17.98;;;11.10;;
55597;SDS011;41463;53.186;5.552;2023-02-21T11:43:23;12.85;;;10.48;;
55597;SDS011;41463;53.186;5.552;2023-02-21T11:48:23;14.82;;;9.88;;
55597;SDS011;41463;53.186;5.552;2023-02-21T11:50:55;17.10;;;11.65;;
55597;SDS011;41463;53.186;5.552;2023-02-21T11:53:30;15.25;;;11.45;;
55597;SDS011;41463;53.186;5.552;2023-02-21T11:56:23;14.60;;;11.00;;
55597;SDS011;41463;53.186;5.552;2023-02-21T11:59:00;15.80;;;10.95;;
55597;SDS011;41463;53.186;5.552;2023-02-21T12:01:39;20.17;;;10.82;;
55597;SDS011;41463;53.186;5.552;2023-02-21T12:07:00;14.23;;;11.32;;
55597;SDS011;41463;53.186;5.552;2023-02-21T12:10:01;18.90;;;10.95;;
55597;SDS011;41463;53.186;5.552;2023-02-21T12:15:21;15.35;;;10.10;;
55597;SDS011;41463;53.186;5.552;2023-02-21T12:17:53;16.70;;;9.98;;
55597;SDS011;41463;53.186;5.552;2023-02-21T12:23:47;14.75;;;10.70;;
55597;SDS011;41463;53.186;5.552;2023-02-21T12:29:31;13.90;;;11.18;;
55597;SDS011;41463;53.186;5.552;2023-02-21T12:35:02;14.55;;;10.77;;
55597;SDS011;41463;53.186;5.552;2023-02-21T12:37:41;11.27;;;10.07;;
55597;SDS011;41463;53.186;5.552;2023-02-21T12:48:20;19.25;;;11.25;;
55597;SDS011;41463;53.186;5.552;2023-02-21T12:50:50;15.38;;;11.35;;
55597;SDS011;41463;53.186;5.552;2023-02-21T12:53:23;13.02;;;10.65;;
55597;SDS011;41463;53.186;5.552;2023-02-21T12:56:04;14.82;;;10.57;;
55597;SDS011;41463;53.186;5.552;2023-02-21T12:58:37;17.75;;;12.85;;
55597;SDS011;41463;53.186;5.552;2023-02-21T13:01:15;17.77;;;12.10;;
55597;SDS011;41463;53.186;5.552;2023-02-21T13:09:48;14.90;;;10.55;;
55597;SDS011;41463;53.186;5.552;2023-02-21T13:12:42;18.45;;;11.85;;
55597;SDS011;41463;53.186;5.552;2023-02-21T13:15:14;14.65;;;11.55;;
55597;SDS011;41463;53.186;5.552;2023-02-21T13:17:43;15.73;;;10.25;;
55597;SDS011;41463;53.186;5.552;2023-02-21T13:20:28;15.20;;;11.38;;
55597;SDS011;41463;53.186;5.552;2023-02-21T13:23:04;15.57;;;11.13;;
55597;SDS011;41463;53.186;5.552;2023-02-21T13:28:22;13.13;;;10.52;;
55597;SDS011;41463;53.186;5.552;2023-02-21T13:30:58;16.05;;;12.20;;
55597;SDS011;41463;53.186;5.552;2023-02-21T13:33:37;16.70;;;11.38;;
55597;SDS011;41463;53.186;5.552;2023-02-21T13:41:46;15.57;;;11.77;;
55597;SDS011;41463;53.186;5.552;2023-02-21T13:47:00;15.77;;;10.63;;
55597;SDS011;41463;53.186;5.552;2023-02-21T13:52:52;17.20;;;11.73;;
55597;SDS011;41463;53.186;5.552;2023-02-21T13:55:37;16.38;;;12.80;;
55597;SDS011;41463;53.186;5.552;2023-02-21T14:08:17;18.05;;;13.60;;
55597;SDS011;41463;53.186;5.552;2023-02-21T14:11:19;21.70;;;15.77;;
55597;SDS011;41463;53.186;5.552;2023-02-21T14:14:02;20.08;;;12.63;;
55597;SDS011;41463;53.186;5.552;2023-02-21T14:17:06;16.83;;;11.65;;
55597;SDS011;41463;53.186;5.552;2023-02-21T14:19:36;14.55;;;10.65;;
55597;SDS011;41463;53.186;5.552;2023-02-21T14:22:20;13.90;;;10.60;;
55597;SDS011;41463;53.186;5.552;2023-02-21T14:25:03;16.80;;;12.00;;
55597;SDS011;41463;53.186;5.552;2023-02-21T14:27:49;13.98;;;10.98;;
55597;SDS011;41463;53.186;5.552;2023-02-21T14:30:31;15.95;;;11.25;;
55597;SDS011;41463;53.186;5.552;2023-02-21T14:33:06;14.77;;;11.20;;
55597;SDS011;41463;53.186;5.552;2023-02-21T14:35:57;13.52;;;11.32;;
55597;SDS011;41463;53.186;5.552;2023-02-21T14:38:29;15.95;;;11.55;;
55597;SDS011;41463;53.186;5.552;2023-02-21T14:44:08;16.10;;;12.20;;
55597;SDS011;41463;53.186;5.552;2023-02-21T14:47:16;16.70;;;11.65;;
55597;SDS011;41463;53.186;5.552;2023-02-21T14:52:59;14.60;;;11.23;;
55597;SDS011;41463;53.186;5.552;2023-02-21T15:06:56;18.95;;;14.15;;
55597;SDS011;41463;53.186;5.552;2023-02-21T15:09:44;18.67;;;15.00;;
55597;SDS011;41463;53.186;5.552;2023-02-21T15:12:27;20.23;;;15.23;;
55597;SDS011;41463;53.186;5.552;2023-02-21T15:14:56;28.40;;;22.92;;
55597;SDS011;41463;53.186;5.552;2023-02-21T15:17:23;31.00;;;22.90;;
55597;SDS011;41463;53.186;5.552;2023-02-21T15:20:03;41.20;;;25.83;;
55597;SDS011;41463;53.186;5.552;2023-02-21T15:22:41;106.53;;;52.00;;
55597;SDS011;41463;53.186;5.552;2023-02-21T15:27:33;28.73;;;17.98;;
55597;SDS011;41463;53.186;5.552;2023-02-21T15:30:06;22.05;;;18.95;;
55597;SDS011;41463;53.186;5.552;2023-02-21T15:32:33;28.45;;;22.40;;
55597;SDS011;41463;53.186;5.552;2023-02-21T15:35:01;23.25;;;18.80;;
55597;SDS011;41463;53.186;5.552;2023-02-21T15:37:30;29.25;;;23.15;;
55597;SDS011;41463;53.186;5.552;2023-02-21T15:40:00;31.95;;;23.23;;
55597;SDS011;41463;53.186;5.552;2023-02-21T15:42:36;28.13;;;20.50;;
55597;SDS011;41463;53.186;5.552;2023-02-21T15:50:43;20.35;;;16.83;;
55597;SDS011;41463;53.186;5.552;2023-02-21T15:53:29;24.92;;;17.65;;
55597;SDS011;41463;53.186;5.552;2023-02-21T15:56:19;21.83;;;16.05;;
55597;SDS011;41463;53.186;5.552;2023-02-21T15:59:32;25.77;;;18.90;;
55597;SDS011;41463;53.186;5.552;2023-02-21T16:04:35;24.85;;;18.20;;
55597;SDS011;41463;53.186;5.552;2023-02-21T16:07:03;19.50;;;16.88;;
55597;SDS011;41463;53.186;5.552;2023-02-21T16:09:31;21.70;;;16.73;;
55597;SDS011;41463;53.186;5.552;2023-02-21T16:12:03;25.33;;;18.67;;
55597;SDS011;41463;53.186;5.552;2023-02-21T16:14:45;22.38;;;16.98;;
55597;SDS011;41463;53.186;5.552;2023-02-21T16:17:52;24.23;;;18.40;;
55597;SDS011;41463;53.186;5.552;2023-02-21T16:20:27;21.88;;;17.23;;
55597;SDS011;41463;53.186;5.552;2023-02-21T16:26:18;19.40;;;16.38;;
55597;SDS011;41463;53.186;5.552;2023-02-21T16:31:32;23.58;;;16.65;;
55597;SDS011;41463;53.186;5.552;2023-02-21T16:34:00;21.88;;;16.95;;
55597;SDS011;41463;53.186;5.552;2023-02-21T16:36:37;25.38;;;20.17;;
55597;SDS011;41463;53.186;5.552;2023-02-21T16:39:12;24.40;;;18.77;;
55597;SDS011;41463;53.186;5.552;2023-02-21T16:41:41;22.45;;;16.90;;
55597;SDS011;41463;53.186;5.552;2023-02-21T16:44:09;23.05;;;17.60;;
55597;SDS011;41463;53.186;5.552;2023-02-21T16:46:35;25.65;;;19.83;;
55597;SDS011;41463;53.186;5.552;2023-02-21T16:49:07;27.13;;;19.27;;
55597;SDS011;41463;53.186;5.552;2023-02-21T16:51:34;25.45;;;18.02;;
55597;SDS011;41463;53.186;5.552;2023-02-21T16:54:02;31.63;;;23.05;;
55597;SDS011;41463;53.186;5.552;2023-02-21T16:56:28;22.35;;;17.88;;
55597;SDS011;41463;53.186;5.552;2023-02-21T16:58:54;24.77;;;18.83;;
55597;SDS011;41463;53.186;5.552;2023-02-21T17:01:24;24.58;;;19.20;;
55597;SDS011;41463;53.186;5.552;2023-02-21T17:03:54;24.42;;;17.75;;
55597;SDS011;41463;53.186;5.552;2023-02-21T17:06:20;26.23;;;19.48;;
55597;SDS011;41463;53.186;5.552;2023-02-21T17:08:49;32.30;;;21.70;;
55597;SDS011;41463;53.186;5.552;2023-02-21T17:11:15;30.67;;;20.73;;
55597;SDS011;41463;53.186;5.552;2023-02-21T17:13:41;34.53;;;22.73;;
55597;SDS011;41463;53.186;5.552;2023-02-21T17:16:09;32.97;;;21.63;;
55597;SDS011;41463;53.186;5.552;2023-02-21T17:18:35;36.70;;;22.55;;
55597;SDS011;41463;53.186;5.552;2023-02-21T17:21:01;37.15;;;21.77;;
55597;SDS011;41463;53.186;5.552;2023-02-21T17:23:28;34.38;;;21.92;;
55597;SDS011;41463;53.186;5.552;2023-02-21T17:25:54;36.83;;;22.58;;
55597;SDS011;41463;53.186;5.552;2023-02-21T17:28:22;32.33;;;21.38;;
55597;SDS011;41463;53.186;5.552;2023-02-21T17:30:48;31.95;;;21.17;;
55597;SDS011;41463;53.186;5.552;2023-02-21T17:33:14;30.33;;;20.48;;
55597;SDS011;41463;53.186;5.552;2023-02-21T17:35:40;30.15;;;20.38;;
55597;SDS011;41463;53.186;5.552;2023-02-21T17:38:08;49.72;;;34.00;;
55597;SDS011;41463;53.186;5.552;2023-02-21T17:40:34;59.22;;;41.17;;
55597;SDS011;41463;53.186;5.552;2023-02-21T17:43:00;56.05;;;37.50;;
55597;SDS011;41463;53.186;5.552;2023-02-21T17:45:27;46.92;;;29.48;;
55597;SDS011;41463;53.186;5.552;2023-02-21T17:47:53;39.55;;;27.10;;
55597;SDS011;41463;53.186;5.552;2023-02-21T17:50:19;43.60;;;29.30;;
55597;SDS011;41463;53.186;5.552;2023-02-21T17:52:45;30.02;;;20.67;;
55597;SDS011;41463;53.186;5.552;2023-02-21T17:55:16;29.30;;;20.52;;
55597;SDS011;41463;53.186;5.552;2023-02-21T17:57:46;32.92;;;21.25;;
55597;SDS011;41463;53.186;5.552;2023-02-21T18:00:29;29.80;;;20.60;;
55597;SDS011;41463;53.186;5.552;2023-02-21T18:02:59;34.20;;;21.30;;